Time;durP1;ratioP1;P1;durP2;ratioP2;P2;SDS_P1;SDS_P2;PMS_P1;PMS_P2;Temp;Humidity;BMP_temperature;BMP_pressure;BME280_temperature;BME280_humidity;BME280_pressure;Samples;Min_cycle;Max_cycle;Signal;HPM_P1;HPM_P2
2023/04/07 00:01:31;;;;;;;;;;;;;;;8.74;100.00;101335.53;10375008;28;19932;-69
2023/04/07 00:06:33;;;;;;;;;;;;;;;8.76;100.00;101335.47;10374683;28;19972;-69
2023/04/07 00:11:35;;;;;;;;;;;;;;;8.77;100.00;101329.31;10374009;28;19929;-69
2023/04/07 00:16:37;;;;;;;;;;;;;;;8.64;100.00;101333.34;10375192;28;19926;-69
2023/04/07 00:21:40;;;;;;;;;;;;;;;8.54;100.00;101340.72;10375111;28;19926;-69
2023/04/07 00:26:42;;;;;;;;;;;;;;;8.55;100.00;101334.56;10373537;28;20375;-69
2023/04/07 00:31:44;;;;;;;;;;;;;;;8.67;100.00;101338.44;10374237;28;19945;-69
2023/04/07 00:36:50;;;;;;;;;;;;;;;8.46;100.00;101340.16;10374868;28;19932;-69
2023/04/07 00:41:53;;;;;;;;;;;;;;;8.59;100.00;101349.19;10374175;28;19932;-69
2023/04/07 00:46:55;;;;;;;;;;;;;;;8.62;100.00;101348.22;10374571;28;19932;-69
2023/04/07 00:51:57;;;;;;;;;;;;;;;8.57;100.00;101355.38;10373152;28;19996;-69
2023/04/07 00:57:00;;;;;;;;;;;;;;;8.60;100.00;101350.03;10382189;28;19952;-69
2023/04/07 01:02:20;;;;;;;;;;;;;;;8.40;100.00;101346.44;10380091;28;20372;-69
2023/04/07 01:07:35;;;;;;;;;;;;;;;8.54;100.00;101352.00;10381746;28;20028;-69
2023/04/07 01:12:39;;;;;;;;;;;;;;;8.63;100.00;101331.66;10364165;28;19926;-69
2023/04/07 01:17:42;;;;;;;;;;;;;;;8.50;100.00;101339.97;10363557;28;19925;-69
2023/04/07 01:22:45;;;;;;;;;;;;;;;8.40;100.00;101349.03;10363115;28;19983;-69
2023/04/07 01:27:48;;;;;;;;;;;;;;;8.28;100.00;101357.34;10379739;28;19926;-69
2023/04/07 01:32:51;;;;;;;;;;;;;;;8.58;100.00;101351.88;10380204;28;20336;-69
2023/04/07 01:37:53;;;;;;;;;;;;;;;8.43;100.00;101351.56;10363314;28;19975;-69
2023/04/07 01:42:55;;;;;;;;;;;;;;;8.36;100.00;101350.91;10361855;28;20372;-69
2023/04/07 01:47:57;;;;;;;;;;;;;;;8.34;100.00;101354.50;10361699;28;19930;-69
2023/04/07 01:53:00;;;;;;;;;;;;;;;8.48;100.00;101349.63;10378857;28;20392;-69
2023/04/07 01:58:03;;;;;;;;;;;;;;;8.30;100.00;101361.59;10379877;28;19925;-69
2023/04/07 02:03:10;;;;;;;;;;;;;;;8.50;100.00;101360.84;10377737;28;19930;-69
2023/04/07 02:08:13;;;;;;;;;;;;;;;8.48;100.00;101354.00;10360940;28;19929;-70
2023/04/07 02:13:15;;;;;;;;;;;;;;;8.27;100.00;101358.25;10378577;28;20281;-69
2023/04/07 02:18:18;;;;;;;;;;;;;;;8.26;100.00;101357.41;10360451;28;19926;-69
2023/04/07 02:23:20;;;;;;;;;;;;;;;8.29;100.00;101359.06;10378225;28;20347;-69
2023/04/07 02:28:23;;;;;;;;;;;;;;;8.35;100.00;101362.28;10378045;28;19925;-69
2023/04/07 02:33:25;;;;;;;;;;;;;;;8.26;100.00;101373.06;10378476;28;19936;-69
2023/04/07 02:38:27;;;;;;;;;;;;;;;8.36;100.00;101363.97;10378253;28;19929;-69
2023/04/07 02:43:29;;;;;;;;;;;;;;;8.29;100.00;101374.72;10377395;28;19979;-69
2023/04/07 02:48:31;;;;;;;;;;;;;;;8.36;100.00;101368.34;10376800;28;19932;-69
2023/04/07 02:53:34;;;;;;;;;;;;;;;8.17;100.00;101383.88;10377139;28;19969;-69
2023/04/07 02:58:36;;;;;;;;;;;;;;;8.10;100.00;101391.06;10377549;28;19932;-68
2023/04/07 03:03:41;;;;;;;;;;;;;;;8.12;100.00;101385.75;10375958;28;19925;-69
2023/04/07 03:08:43;;;;;;;;;;;;;;;8.15;100.00;101386.53;10375916;28;20407;-69
2023/04/07 03:13:45;;;;;;;;;;;;;;;8.27;100.00;101387.81;10376255;28;20435;-69
2023/04/07 03:18:48;;;;;;;;;;;;;;;8.11;100.00;101382.31;10375832;28;19933;-69
2023/04/07 03:23:50;;;;;;;;;;;;;;;8.23;100.00;101383.59;10375906;28;19933;-69
2023/04/07 03:28:52;;;;;;;;;;;;;;;8.05;100.00;101392.13;10375326;28;19926;-69
2023/04/07 03:33:54;;;;;;;;;;;;;;;8.13;100.00;101380.50;10376290;28;19925;-69
2023/04/07 03:38:56;;;;;;;;;;;;;;;8.32;100.00;101380.66;10375481;28;20328;-69
2023/04/07 03:43:59;;;;;;;;;;;;;;;8.22;100.00;101381.06;10374885;28;20320;-69
2023/04/07 03:49:01;;;;;;;;;;;;;;;8.30;100.00;101377.25;10357183;28;19932;-69
2023/04/07 03:54:03;;;;;;;;;;;;;;;8.16;100.00;101387.38;10375756;28;19929;-69
2023/04/07 03:59:06;;;;;;;;;;;;;;;8.28;100.00;101388.66;10374777;28;19937;-69
2023/04/07 04:04:08;;;;;;;;;;;;;;;8.36;100.00;101384.00;10374164;28;19938;-69
2023/04/07 04:09:10;;;;;;;;;;;;;;;8.43;100.00;101382.03;10374075;28;20012;-69
2023/04/07 04:14:12;;;;;;;;;;;;;;;8.31;100.00;101396.38;10375345;28;19925;-69
2023/04/07 04:19:15;;;;;;;;;;;;;;;8.07;100.00;101403.34;10374587;28;19933;-69
2023/04/07 04:24:19;;;;;;;;;;;;;;;8.27;100.00;101402.59;10373304;28;19932;-69
2023/04/07 04:29:22;;;;;;;;;;;;;;;8.39;100.00;101404.75;10376952;28;19925;-69
2023/04/07 04:34:24;;;;;;;;;;;;;;;8.42;100.00;101414.22;10383184;28;19925;-69
2023/04/07 04:39:26;;;;;;;;;;;;;;;8.37;100.00;101411.78;10382306;28;20368;-69
2023/04/07 04:44:29;;;;;;;;;;;;;;;8.32;100.00;101414.56;10382023;28;19926;-69
2023/04/07 04:49:31;;;;;;;;;;;;;;;8.30;100.00;101418.13;10380605;28;19933;-69
2023/04/07 04:54:33;;;;;;;;;;;;;;;8.32;100.00;101424.16;10381694;28;19926;-69
2023/04/07 04:59:35;;;;;;;;;;;;;;;8.42;100.00;101429.88;10382037;28;19930;-68
2023/04/07 05:04:38;;;;;;;;;;;;;;;8.41;100.00;101431.63;10380837;28;19925;-69
2023/04/07 05:09:40;;;;;;;;;;;;;;;8.43;100.00;101429.00;10379360;28;19925;-69
2023/04/07 05:14:42;;;;;;;;;;;;;;;8.34;100.00;101435.41;10379281;23;19933;-65
2023/04/07 05:19:45;;;;;;;;;;;;;;;8.38;100.00;101436.97;10340880;28;19925;-65
2023/04/07 05:24:47;;;;;;;;;;;;;;;8.25;100.00;101433.13;10340575;28;19930;-65
2023/04/07 05:29:49;;;;;;;;;;;;;;;8.38;100.00;101439.56;10339803;28;19926;-65
2023/04/07 05:34:51;;;;;;;;;;;;;;;8.36;100.00;101441.41;10340207;28;19970;-65
2023/04/07 05:39:53;;;;;;;;;;;;;;;8.52;100.00;101445.16;10339732;28;19980;-65
2023/04/07 05:44:55;;;;;;;;;;;;;;;8.35;100.00;101444.91;10339844;28;19977;-65
2023/04/07 05:49:58;;;;;;;;;;;;;;;8.48;100.00;101445.34;10339736;28;19925;-65
2023/04/07 05:55:00;;;;;;;;;;;;;;;8.61;100.00;101445.69;10338890;28;20278;-65
2023/04/07 06:00:03;;;;;;;;;;;;;;;8.58;100.00;101441.47;10338624;28;20296;-65
2023/04/07 06:05:05;;;;;;;;;;;;;;;8.72;100.00;101447.00;10339132;28;19976;-65
2023/04/07 06:10:08;;;;;;;;;;;;;;;8.88;100.00;101452.47;10339030;28;19926;-65
2023/04/07 06:15:10;;;;;;;;;;;;;;;8.81;100.00;101455.34;10338380;28;19926;-65
2023/04/07 06:20:12;;;;;;;;;;;;;;;8.79;100.00;101458.03;10338524;28;19929;-65
2023/04/07 06:25:14;;;;;;;;;;;;;;;8.82;100.00;101468.34;10338342;28;19926;-65
2023/04/07 06:30:17;;;;;;;;;;;;;;;8.93;100.00;101470.56;10338189;28;19980;-65
2023/04/07 06:35:19;;;;;;;;;;;;;;;8.70;100.00;101477.53;10338030;28;19976;-65
2023/04/07 06:40:21;;;;;;;;;;;;;;;8.67;100.00;101476.78;10337768;28;19933;-65
2023/04/07 06:45:23;;;;;;;;;;;;;;;8.67;100.00;101487.22;10337183;28;20297;-65
2023/04/07 06:50:26;;;;;;;;;;;;;;;8.87;100.00;101496.91;10336009;28;20365;-65
2023/04/07 06:55:28;;;;;;;;;;;;;;;9.01;100.00;101501.59;10337178;28;19926;-65
2023/04/07 07:00:30;;;;;;;;;;;;;;;8.75;100.00;101503.47;10336994;28;19925;-65
2023/04/07 07:05:32;;;;;;;;;;;;;;;8.54;100.00;101508.59;10336783;28;19933;-65
2023/04/07 07:10:35;;;;;;;;;;;;;;;8.74;100.00;101520.91;10336717;28;19960;-65
2023/04/07 07:15:37;;;;;;;;;;;;;;;8.57;100.00;101514.59;10335895;28;19933;-65
2023/04/07 07:20:39;;;;;;;;;;;;;;;8.89;100.00;101515.97;10319174;28;19926;-65
2023/04/07 07:25:42;;;;;;;;;;;;;;;9.15;100.00;101511.50;10335590;28;19988;-65
2023/04/07 07:30:44;;;;;;;;;;;;;;;9.17;100.00;101513.13;10335224;28;20027;-65
2023/04/07 07:35:46;;;;;;;;;;;;;;;9.25;100.00;101518.91;10335090;28;19952;-65
2023/04/07 07:40:49;;;;;;;;;;;;;;;9.18;100.00;101538.34;10334953;28;20292;-65
2023/04/07 07:45:51;;;;;;;;;;;;;;;9.51;100.00;101537.03;10335317;28;19980;-65
2023/04/07 07:50:55;;;;;;;;;;;;;;;9.69;100.00;101535.44;10335283;28;19929;-65
2023/04/07 07:55:57;;;;;;;;;;;;;;;9.74;100.00;101528.25;10335138;28;19934;-65
2023/04/07 08:01:00;;;;;;;;;;;;;;;9.65;100.00;101537.34;10335035;28;19933;-65
2023/04/07 08:06:02;;;;;;;;;;;;;;;9.63;100.00;101542.63;10334115;28;20262;-65
2023/04/07 08:11:04;;;;;;;;;;;;;;;9.44;100.00;101547.75;10334760;28;19933;-65
2023/04/07 08:16:06;;;;;;;;;;;;;;;9.61;100.00;101548.81;10334274;28;19932;-65
2023/04/07 08:21:09;;;;;;;;;;;;;;;9.53;100.00;101553.50;10334063;28;19973;-65
2023/04/07 08:26:11;;;;;;;;;;;;;;;9.43;100.00;101566.97;10333859;28;19933;-65
2023/04/07 08:31:13;;;;;;;;;;;;;;;9.47;100.00;101565.09;10333873;28;19932;-65
2023/04/07 08:36:16;;;;;;;;;;;;;;;9.75;100.00;101572.66;10334361;28;19926;-65
2023/04/07 08:41:37;;;;;;;;;;;;;;;9.45;100.00;101572.97;10334323;28;19930;-65
2023/04/07 08:46:39;;;;;;;;;;;;;;;9.36;100.00;101582.94;10333615;28;19925;-65
2023/04/07 08:51:44;;;;;;;;;;;;;;;9.55;100.00;101585.66;10334142;28;19926;-65
2023/04/07 08:56:46;;;;;;;;;;;;;;;9.75;100.00;101577.88;10333968;28;19926;-65
2023/04/07 09:01:49;;;;;;;;;;;;;;;9.67;100.00;101588.66;10334062;28;19926;-65
2023/04/07 09:06:51;;;;;;;;;;;;;;;10.14;100.00;101589.34;10316698;28;19925;-65
2023/04/07 09:11:53;;;;;;;;;;;;;;;9.58;100.00;101591.66;10333239;28;19930;-65
2023/04/07 09:16:55;;;;;;;;;;;;;;;10.55;100.00;101590.16;10339427;28;19956;-65
2023/04/07 09:21:58;;;;;;;;;;;;;;;10.55;100.00;101595.41;10340904;28;19929;-65
2023/04/07 09:27:14;;;;;;;;;;;;;;;10.57;100.00;101604.06;10339939;28;19925;-65
2023/04/07 09:32:35;;;;;;;;;;;;;;;10.77;100.00;101604.91;10339375;28;19936;-65
2023/04/07 09:37:37;;;;;;;;;;;;;;;11.23;100.00;101599.31;10339594;28;19934;-65
2023/04/07 09:42:47;;;;;;;;;;;;;;;11.20;97.57;101600.31;10339483;28;20413;-65
2023/04/07 09:47:50;;;;;;;;;;;;;;;10.52;100.00;101605.16;10339845;28;19926;-65
2023/04/07 09:52:52;;;;;;;;;;;;;;;10.36;100.00;101610.22;10339703;28;19929;-65
2023/04/07 09:57:55;;;;;;;;;;;;;;;10.26;100.00;101608.91;10339087;28;19983;-65
2023/04/07 10:02:57;;;;;;;;;;;;;;;10.43;100.00;101608.19;10338706;28;20338;-65
2023/04/07 10:08:01;;;;;;;;;;;;;;;10.34;100.00;101618.16;10339100;28;19932;-65
2023/04/07 10:13:03;;;;;;;;;;;;;;;10.09;100.00;101614.84;10304987;28;19930;-65
2023/04/07 10:18:06;;;;;;;;;;;;;;;10.06;100.00;101617.59;10338005;28;19932;-65
2023/04/07 10:23:12;;;;;;;;;;;;;;;10.41;100.00;101622.19;10338540;28;19981;-65
2023/04/07 10:28:15;;;;;;;;;;;;;;;10.44;100.00;101622.97;10319413;28;19925;-65
2023/04/07 10:33:17;;;;;;;;;;;;;;;10.31;100.00;101633.09;10320271;28;20469;-65
2023/04/07 10:38:20;;;;;;;;;;;;;;;10.37;100.00;101628.50;10337325;28;19925;-65
2023/04/07 10:43:39;;;;;;;;;;;;;;;10.69;98.24;101628.84;10337798;28;19926;-65
2023/04/07 10:48:41;;;;;;;;;;;;;;;10.67;100.00;101633.28;10337436;28;19975;-65
2023/04/07 10:54:04;;;;;;;;;;;;;;;11.07;97.84;101644.59;10337387;28;19926;-65
2023/04/07 10:59:15;;;;;;;;;;;;;;;11.07;96.49;101639.34;10332534;28;20388;-66
2023/04/07 11:04:17;;;;;;;;;;;;;;;10.76;100.00;101645.16;10336908;28;19980;-65
2023/04/07 11:09:20;;;;;;;;;;;;;;;10.55;100.00;101650.38;10336766;28;19925;-65
2023/04/07 11:14:27;;;;;;;;;;;;;;;9.93;100.00;101653.88;10336431;28;19934;-65
2023/04/07 11:19:30;;;;;;;;;;;;;;;10.28;100.00;101654.19;10335724;28;20285;-65
2023/04/07 11:24:32;;;;;;;;;;;;;;;9.99;100.00;101656.25;10335546;28;19926;-65
2023/04/07 11:29:35;;;;;;;;;;;;;;;10.17;100.00;101673.81;10335429;28;20369;-65
2023/04/07 11:34:37;;;;;;;;;;;;;;;10.37;99.46;101674.75;10318216;28;20312;-65
2023/04/07 11:39:39;;;;;;;;;;;;;;;9.96;100.00;101675.53;10317528;28;19980;-65
2023/04/07 11:44:45;;;;;;;;;;;;;;;9.95;98.24;101672.97;10317704;28;20344;-65
2023/04/07 11:49:47;;;;;;;;;;;;;;;9.98;100.00;101680.69;10335509;28;19930;-65
2023/04/07 11:54:49;;;;;;;;;;;;;;;9.92;100.00;101686.16;10335268;28;19926;-65
2023/04/07 12:00:08;;;;;;;;;;;;;;;10.29;100.00;101690.75;10334541;28;19932;-65
2023/04/07 12:05:10;;;;;;;;;;;;;;;10.41;98.33;101697.28;10335074;28;19926;-65
2023/04/07 12:10:19;;;;;;;;;;;;;;;10.31;100.00;101703.78;10334328;28;19925;-65
2023/04/07 12:15:22;;;;;;;;;;;;;;;10.31;100.00;101709.84;10333909;28;19980;-65
2023/04/07 12:20:25;;;;;;;;;;;;;;;10.54;99.93;101706.31;10334123;28;19933;-65
2023/04/07 12:25:27;;;;;;;;;;;;;;;10.51;100.00;101716.06;10333971;28;20374;-65
2023/04/07 12:30:30;;;;;;;;;;;;;;;11.02;100.00;101719.09;10333899;28;20289;-65
2023/04/07 12:35:33;;;;;;;;;;;;;;;10.85;100.00;101725.94;10334422;28;19933;-65
2023/04/07 12:40:36;;;;;;;;;;;;;;;11.20;100.00;101728.75;10334450;28;19933;-65
2023/04/07 12:45:39;;;;;;;;;;;;;;;11.14;100.00;101727.25;10334113;28;19972;-65
2023/04/07 12:50:41;;;;;;;;;;;;;;;10.68;100.00;101733.69;10338885;28;19926;-65
2023/04/07 12:55:43;;;;;;;;;;;;;;;10.78;100.00;101729.75;10341334;28;19988;-66
2023/04/07 13:00:46;;;;;;;;;;;;;;;10.97;100.00;101730.63;10341915;28;19926;-66
2023/04/07 13:05:49;;;;;;;;;;;;;;;10.96;100.00;101741.16;10341473;28;19930;-66
2023/04/07 13:10:51;;;;;;;;;;;;;;;10.78;100.00;101741.06;10340783;28;19926;-66
2023/04/07 13:15:53;;;;;;;;;;;;;;;11.15;100.00;101739.44;10340818;28;19926;-66
2023/04/07 13:20:55;;;;;;;;;;;;;;;11.02;100.00;101742.69;10341017;28;19930;-66
2023/04/07 13:26:17;;;;;;;;;;;;;;;11.09;100.00;101749.34;10340043;28;20346;-66
2023/04/07 13:31:22;;;;;;;;;;;;;;;11.42;100.00;101748.75;10339867;28;20289;-66
2023/04/07 13:36:27;;;;;;;;;;;;;;;11.12;100.00;101744.81;10340414;28;19925;-66
2023/04/07 13:41:29;;;;;;;;;;;;;;;11.38;100.00;101747.19;10340341;28;19930;-66
2023/04/07 13:46:31;;;;;;;;;;;;;;;10.99;100.00;101750.66;10339965;28;19952;-66
2023/04/07 13:51:34;;;;;;;;;;;;;;;11.18;100.00;101748.94;10339818;28;19926;-66
2023/04/07 13:56:37;;;;;;;;;;;;;;;11.09;100.00;101752.81;10338952;28;19948;-66
2023/04/07 14:01:39;;;;;;;;;;;;;;;10.99;100.00;101751.50;10338803;28;19930;-66
2023/04/07 14:06:41;;;;;;;;;;;;;;;10.87;100.00;101749.44;10321802;28;19933;-66
2023/04/07 14:11:44;;;;;;;;;;;;;;;11.19;100.00;101750.63;10339202;28;19926;-66
2023/04/07 14:16:46;;;;;;;;;;;;;;;11.17;100.00;101743.78;10338396;28;19926;-66
2023/04/07 14:21:52;;;;;;;;;;;;;;;11.06;100.00;101744.22;10337922;28;20364;-66
2023/04/07 14:26:54;;;;;;;;;;;;;;;11.31;100.00;101749.22;10337692;28;20396;-66
2023/04/07 14:31:56;;;;;;;;;;;;;;;11.07;99.85;101746.78;10338184;28;19973;-66
2023/04/07 14:36:59;;;;;;;;;;;;;;;11.41;97.04;101750.50;10338153;28;19980;-66
2023/04/07 14:42:01;;;;;;;;;;;;;;;11.09;95.38;101744.09;10338064;28;19973;-66
2023/04/07 14:47:03;;;;;;;;;;;;;;;11.30;96.89;101755.41;10337640;28;19973;-66
2023/04/07 14:52:06;;;;;;;;;;;;;;;11.74;95.49;101756.91;10337403;28;19932;-63
2023/04/07 14:57:08;;;;;;;;;;;;;;;11.62;92.45;101767.03;10336615;28;19972;-64
2023/04/07 15:02:10;;;;;;;;;;;;;;;11.85;93.32;101762.47;10336454;28;19926;-64
2023/04/07 15:07:12;;;;;;;;;;;;;;;11.61;92.50;101774.97;10318992;28;19926;-64
2023/04/07 15:12:15;;;;;;;;;;;;;;;11.55;93.87;101776.13;10335532;28;20444;-65
2023/04/07 15:17:17;;;;;;;;;;;;;;;11.64;93.67;101777.47;10335652;28;19926;-65
2023/04/07 15:22:19;;;;;;;;;;;;;;;10.99;95.06;101774.25;10334564;28;20404;-65
2023/04/07 15:27:21;;;;;;;;;;;;;;;11.87;93.27;101772.00;10336081;28;19980;-65
2023/04/07 15:32:23;;;;;;;;;;;;;;;11.65;93.74;101772.16;10335320;28;19926;-65
2023/04/07 15:37:25;;;;;;;;;;;;;;;11.97;91.00;101774.19;10335725;28;19980;-65
2023/04/07 15:42:28;;;;;;;;;;;;;;;11.31;89.37;101773.69;10335572;28;19926;-65
2023/04/07 15:47:30;;;;;;;;;;;;;;;11.23;91.89;101778.44;10334789;28;19972;-65
2023/04/07 15:52:32;;;;;;;;;;;;;;;11.45;91.73;101783.56;10335277;28;19926;-65
2023/04/07 15:57:34;;;;;;;;;;;;;;;11.49;89.87;101787.72;10335054;28;19926;-65
2023/04/07 16:02:37;;;;;;;;;;;;;;;11.50;90.62;101788.59;10334604;28;19926;-65
2023/04/07 16:07:39;;;;;;;;;;;;;;;11.34;91.04;101789.25;10334839;28;19957;-65
2023/04/07 16:12:41;;;;;;;;;;;;;;;11.21;91.65;101795.13;10334264;28;20361;-65
2023/04/07 16:17:47;;;;;;;;;;;;;;;10.73;93.58;101800.66;10334013;28;19933;-65
2023/04/07 16:22:49;;;;;;;;;;;;;;;11.19;90.27;101799.59;10317506;28;19957;-65
2023/04/07 16:27:51;;;;;;;;;;;;;;;11.01;92.44;101798.63;10342887;28;19925;-65
2023/04/07 16:32:54;;;;;;;;;;;;;;;10.93;93.38;101804.22;10342911;28;19926;-65
2023/04/07 16:38:00;;;;;;;;;;;;;;;10.44;97.09;101812.34;10342882;28;19925;-64
2023/04/07 16:43:02;;;;;;;;;;;;;;;10.60;96.21;101808.16;10340583;28;19965;-64
2023/04/07 16:48:05;;;;;;;;;;;;;;;10.81;96.33;101818.69;10340880;28;19930;-65
2023/04/07 16:53:07;;;;;;;;;;;;;;;10.53;97.43;101819.81;10341971;28;19932;-65
2023/04/07 16:58:10;;;;;;;;;;;;;;;10.51;97.63;101829.50;10341919;28;19929;-65
2023/04/07 17:03:13;;;;;;;;;;;;;;;10.46;97.43;101825.38;10330037;28;19926;-64
2023/04/07 17:08:15;;;;;;;;;;;;;;;10.27;97.41;101838.28;10320337;28;20433;-64
2023/04/07 17:13:17;;;;;;;;;;;;;;;10.71;98.74;101843.56;10341295;28;19929;-65
2023/04/07 17:18:19;;;;;;;;;;;;;;;10.74;94.44;101851.25;10323151;28;19929;-64
2023/04/07 17:23:22;;;;;;;;;;;;;;;10.54;99.27;101859.94;10315886;28;19926;-64
2023/04/07 17:33:32;;;;;;;;;;;;;;;10.34;100.00;101869.44;10288811;28;20400;-68
2023/04/07 17:38:35;;;;;;;;;;;;;;;10.15;100.00;101882.34;10268502;28;19990;-68
2023/04/07 17:43:37;;;;;;;;;;;;;;;10.25;100.00;101895.09;10259331;29;19926;-68
2023/04/07 17:48:39;;;;;;;;;;;;;;;10.27;100.00;101903.72;10259718;29;19934;-68
2023/04/07 17:53:41;;;;;;;;;;;;;;;10.35;100.00;101907.78;10258959;29;19942;-68
2023/04/07 17:58:44;;;;;;;;;;;;;;;10.14;100.00;101908.59;10258227;29;19926;-68
2023/04/07 18:03:48;;;;;;;;;;;;;;;10.27;100.00;101917.69;10259251;29;20017;-68
2023/04/07 18:08:50;;;;;;;;;;;;;;;9.97;100.00;101919.66;10258340;29;19973;-68
2023/04/07 18:13:53;;;;;;;;;;;;;;;9.99;100.00;101926.56;10258837;29;19931;-68
2023/04/07 18:18:56;;;;;;;;;;;;;;;10.02;100.00;101929.06;10257477;29;19926;-68
2023/04/07 18:23:58;;;;;;;;;;;;;;;9.82;100.00;101937.63;10235016;28;19974;-68
2023/04/07 18:29:00;;;;;;;;;;;;;;;9.58;100.00;101955.06;10255025;28;19926;-68
2023/04/07 18:34:03;;;;;;;;;;;;;;;9.53;100.00;101948.28;10256534;28;20309;-68
2023/04/07 18:39:05;;;;;;;;;;;;;;;9.69;100.00;101957.28;10256724;29;19933;-69
2023/04/07 18:44:08;;;;;;;;;;;;;;;9.45;100.00;101959.84;10254887;28;19933;-69
2023/04/07 18:49:10;;;;;;;;;;;;;;;9.47;100.00;101968.50;10256087;28;19933;-69
2023/04/07 18:54:12;;;;;;;;;;;;;;;9.55;100.00;101973.47;10256624;29;19927;-69
2023/04/07 18:59:15;;;;;;;;;;;;;;;9.70;100.00;101982.53;10256430;29;19926;-69
2023/04/07 19:04:19;;;;;;;;;;;;;;;9.58;100.00;101993.41;10253787;28;20441;-69
2023/04/07 19:09:21;;;;;;;;;;;;;;;9.62;100.00;101998.50;10253857;28;19930;-68
2023/04/07 19:14:23;;;;;;;;;;;;;;;9.39;100.00;102006.25;10255631;28;19926;-68
2023/04/07 19:19:27;;;;;;;;;;;;;;;9.39;100.00;102012.31;10256289;29;19933;-68
2023/04/07 19:24:29;;;;;;;;;;;;;;;9.54;100.00;102026.66;10255516;28;19985;-68
2023/04/07 19:29:33;;;;;;;;;;;;;;;9.61;100.00;102017.69;10276869;28;19926;-68
2023/04/07 19:34:35;;;;;;;;;;;;;;;9.53;100.00;102021.47;10263831;28;20396;-68
2023/04/07 19:39:37;;;;;;;;;;;;;;;9.51;100.00;102026.75;10254742;28;19926;-68
2023/04/07 19:44:41;;;;;;;;;;;;;;;9.44;100.00;102028.72;10255521;29;19949;-68
2023/04/07 19:49:44;;;;;;;;;;;;;;;9.57;100.00;102030.94;10253057;28;20373;-68
2023/04/07 19:54:47;;;;;;;;;;;;;;;9.65;100.00;102035.00;10254264;28;19927;-68
2023/04/07 19:59:49;;;;;;;;;;;;;;;9.55;100.00;102035.34;10250889;28;20037;-68
2023/04/07 20:04:52;;;;;;;;;;;;;;;9.42;100.00;102053.22;10254238;29;20262;-68
2023/04/07 20:09:56;;;;;;;;;;;;;;;9.43;100.00;102055.78;10236751;29;19930;-68
2023/04/07 20:14:58;;;;;;;;;;;;;;;9.45;100.00;102050.50;10254093;29;20305;-68
2023/04/07 20:20:00;;;;;;;;;;;;;;;9.42;100.00;102047.97;10252430;28;19986;-68
2023/04/07 20:25:04;;;;;;;;;;;;;;;9.39;100.00;102051.53;10254438;29;19986;-68
2023/04/07 20:30:06;;;;;;;;;;;;;;;9.54;100.00;102068.47;10251278;28;19926;-68
2023/04/07 20:35:10;;;;;;;;;;;;;;;9.44;100.00;102075.75;10252060;28;19935;-68
2023/04/07 20:40:12;;;;;;;;;;;;;;;9.26;100.00;102066.78;10253655;29;20350;-68
2023/04/07 20:45:15;;;;;;;;;;;;;;;9.26;100.00;102074.63;10253495;28;19930;-68
2023/04/07 20:50:17;;;;;;;;;;;;;;;9.47;100.00;102074.81;10252206;28;19933;-68
2023/04/07 20:55:19;;;;;;;;;;;;;;;9.47;100.00;102083.50;10253893;29;19982;-68
2023/04/07 21:00:22;;;;;;;;;;;;;;;9.55;100.00;102079.78;10253925;29;19927;-68
2023/04/07 21:05:24;;;;;;;;;;;;;;;9.47;100.00;102082.66;10251236;28;19951;-68
2023/04/07 21:10:26;;;;;;;;;;;;;;;9.42;100.00;102092.41;10256331;28;19927;-68
2023/04/07 21:15:28;;;;;;;;;;;;;;;9.61;100.00;102084.81;10261126;29;19934;-68
2023/04/07 21:20:31;;;;;;;;;;;;;;;9.71;100.00;102088.00;10258660;28;19974;-68
2023/04/07 21:25:35;;;;;;;;;;;;;;;9.71;100.00;102091.47;10257896;28;19927;-68
2023/04/07 21:30:40;;;;;;;;;;;;;;;9.42;100.00;102097.66;10258599;28;19997;-68
2023/04/07 21:35:42;;;;;;;;;;;;;;;9.55;100.00;102100.69;10258341;28;19926;-68
2023/04/07 21:40:45;;;;;;;;;;;;;;;9.36;100.00;102101.28;10260120;29;19962;-68
2023/04/07 21:45:47;;;;;;;;;;;;;;;9.48;100.00;102094.81;10258843;28;19973;-68
2023/04/07 21:50:50;;;;;;;;;;;;;;;9.49;100.00;102101.78;10258925;28;19934;-68
2023/04/07 21:55:52;;;;;;;;;;;;;;;9.38;100.00;102104.75;10257676;28;19926;-68
2023/04/07 22:00:54;;;;;;;;;;;;;;;9.17;100.00;102098.41;10259350;29;19982;-68
2023/04/07 22:05:58;;;;;;;;;;;;;;;9.15;100.00;102104.59;10258134;28;19934;-68
2023/04/07 22:11:00;;;;;;;;;;;;;;;8.72;100.00;102104.09;10256222;28;19931;-68
2023/04/07 22:16:02;;;;;;;;;;;;;;;8.64;100.00;102108.66;10258624;29;19930;-68
2023/04/07 22:21:04;;;;;;;;;;;;;;;8.32;100.00;102115.59;10257837;28;20353;-68
2023/04/07 22:26:07;;;;;;;;;;;;;;;8.08;100.00;102120.56;10257394;28;19926;-68
2023/04/07 22:31:09;;;;;;;;;;;;;;;8.07;100.00;102115.38;10256373;28;20327;-68
2023/04/07 22:36:11;;;;;;;;;;;;;;;7.93;100.00;102128.78;10257946;29;20318;-68
2023/04/07 22:41:13;;;;;;;;;;;;;;;7.94;100.00;102128.75;10257836;29;19931;-68
2023/04/07 22:46:16;;;;;;;;;;;;;;;7.82;100.00;102134.28;10256266;28;19926;-68
2023/04/07 22:51:19;;;;;;;;;;;;;;;7.68;100.00;102133.75;10255542;28;19926;-68
2023/04/07 22:56:23;;;;;;;;;;;;;;;7.86;100.00;102138.50;10257130;29;19926;-68
2023/04/07 23:01:25;;;;;;;;;;;;;;;7.95;100.00;102143.53;10255626;28;19933;-68
2023/04/07 23:06:27;;;;;;;;;;;;;;;8.16;100.00;102147.31;10254831;29;19968;-68
2023/04/07 23:11:29;;;;;;;;;;;;;;;8.15;100.00;102152.56;10255041;28;19926;-68
2023/04/07 23:16:32;;;;;;;;;;;;;;;8.27;100.00;102159.22;10256494;29;19934;-68
2023/04/07 23:21:34;;;;;;;;;;;;;;;8.34;100.00;102155.59;10255333;28;19955;-68
2023/04/07 23:26:36;;;;;;;;;;;;;;;8.42;100.00;102160.59;10254568;28;19973;-68
2023/04/07 23:31:38;;;;;;;;;;;;;;;8.32;100.00;102160.84;10254603;28;19974;-68
2023/04/07 23:36:41;;;;;;;;;;;;;;;8.47;100.00;102164.84;10255845;29;19926;-68
2023/04/07 23:41:43;;;;;;;;;;;;;;;8.43;100.00;102171.00;10255729;29;19926;-68
2023/04/07 23:46:45;;;;;;;;;;;;;;;8.37;100.00;102172.00;10254247;28;20345;-68
2023/04/07 23:51:47;;;;;;;;;;;;;;;8.50;100.00;102172.56;10254041;28;19931;-68
2023/04/07 23:56:50;;;;;;;;;;;;;;;8.36;100.00;102174.66;10254608;28;19934;-68
